sensor_id;sensor_type;location;lat;lon;timestamp;pressure;altitude;pressure_sealevel;temperature;humidity
22241;BME280;11289;52.524;13.694;2022-08-19T00:01:19;100312.50;;;22.27;76.75
22241;BME280;11289;52.524;13.694;2022-08-19T00:03:45;100319.28;;;22.40;79.53
22241;BME280;11289;52.524;13.694;2022-08-19T00:06:11;100340.59;;;22.49;80.38
22241;BME280;11289;52.524;13.694;2022-08-19T00:08:37;100349.09;;;22.49;80.84
22241;BME280;11289;52.524;13.694;2022-08-19T00:11:02;100327.81;;;22.37;81.14
22241;BME280;11289;52.524;13.694;2022-08-19T00:13:28;100358.78;;;22.48;81.59
22241;BME280;11289;52.524;13.694;2022-08-19T00:15:54;100357.66;;;22.41;81.96
22241;BME280;11289;52.524;13.694;2022-08-19T00:18:20;100350.44;;;22.37;82.30
22241;BME280;11289;52.524;13.694;2022-08-19T00:20:46;100380.19;;;22.49;83.42
22241;BME280;11289;52.524;13.694;2022-08-19T00:23:11;100367.31;;;22.44;83.04
22241;BME280;11289;52.524;13.694;2022-08-19T00:25:37;100353.66;;;22.32;82.31
22241;BME280;11289;52.524;13.694;2022-08-19T00:28:03;100339.16;;;22.26;84.06
22241;BME280;11289;52.524;13.694;2022-08-19T00:30:29;100349.19;;;22.38;82.56
22241;BME280;11289;52.524;13.694;2022-08-19T00:32:55;100352.50;;;22.25;81.99
22241;BME280;11289;52.524;13.694;2022-08-19T00:35:21;100324.25;;;22.22;83.31
22241;BME280;11289;52.524;13.694;2022-08-19T00:37:48;100327.09;;;22.22;82.82
22241;BME280;11289;52.524;13.694;2022-08-19T00:40:14;100327.09;;;22.22;83.06
22241;BME280;11289;52.524;13.694;2022-08-19T00:42:39;100327.13;;;22.18;82.41
22241;BME280;11289;52.524;13.694;2022-08-19T00:45:11;100338.50;;;22.15;83.80
22241;BME280;11289;52.524;13.694;2022-08-19T00:47:38;100336.44;;;22.15;84.09
22241;BME280;11289;52.524;13.694;2022-08-19T00:50:04;100333.16;;;22.20;83.97
22241;BME280;11289;52.524;13.694;2022-08-19T00:52:33;100317.47;;;22.16;83.62
22241;BME280;11289;52.524;13.694;2022-08-19T00:55:01;100330.34;;;22.20;83.44
22241;BME280;11289;52.524;13.694;2022-08-19T00:57:35;100343.69;;;22.20;83.06
22241;BME280;11289;52.524;13.694;2022-08-19T01:00:08;100346.63;;;22.05;82.38
22241;BME280;11289;52.524;13.694;2022-08-19T01:02:35;100333.84;;;21.90;82.84
22241;BME280;11289;52.524;13.694;2022-08-19T01:05:08;100356.78;;;21.99;84.07
22241;BME280;11289;52.524;13.694;2022-08-19T01:07:35;100357.25;;;21.87;83.10
22241;BME280;11289;52.524;13.694;2022-08-19T01:10:03;100338.41;;;21.69;84.11
22241;BME280;11289;52.524;13.694;2022-08-19T01:12:29;100343.59;;;21.78;85.26
22241;BME280;11289;52.524;13.694;2022-08-19T01:14:55;100367.75;;;21.86;85.45
22241;BME280;11289;52.524;13.694;2022-08-19T01:17:21;100365.72;;;21.87;84.87
22241;BME280;11289;52.524;13.694;2022-08-19T01:19:47;100349.19;;;21.89;86.24
22241;BME280;11289;52.524;13.694;2022-08-19T01:24:46;100374.19;;;21.90;84.58
22241;BME280;11289;52.524;13.694;2022-08-19T01:27:12;100384.72;;;21.90;85.86
22241;BME280;11289;52.524;13.694;2022-08-19T01:29:39;100370.16;;;21.88;85.39
22241;BME280;11289;52.524;13.694;2022-08-19T01:32:07;100371.38;;;21.90;85.38
22241;BME280;11289;52.524;13.694;2022-08-19T01:34:33;100358.81;;;21.95;86.97
22241;BME280;11289;52.524;13.694;2022-08-19T01:37:00;100356.81;;;21.92;85.74
22241;BME280;11289;52.524;13.694;2022-08-19T01:39:30;100337.94;;;21.82;85.78
22241;BME280;11289;52.524;13.694;2022-08-19T01:41:55;100303.25;;;21.78;85.97
22241;BME280;11289;52.524;13.694;2022-08-19T01:44:21;100293.59;;;21.75;85.72
22241;BME280;11289;52.524;13.694;2022-08-19T01:46:49;100279.50;;;21.71;84.58
22241;BME280;11289;52.524;13.694;2022-08-19T01:49:18;100290.50;;;21.59;84.40
22241;BME280;11289;52.524;13.694;2022-08-19T01:51:44;100292.09;;;21.60;87.11
22241;BME280;11289;52.524;13.694;2022-08-19T01:54:12;100280.81;;;21.56;85.74
22241;BME280;11289;52.524;13.694;2022-08-19T01:56:49;100282.84;;;21.52;84.44
22241;BME280;11289;52.524;13.694;2022-08-19T01:59:17;100290.97;;;21.43;85.16
22241;BME280;11289;52.524;13.694;2022-08-19T02:01:44;100272.88;;;21.33;85.33
22241;BME280;11289;52.524;13.694;2022-08-19T02:04:09;100258.34;;;21.34;85.48
22241;BME280;11289;52.524;13.694;2022-08-19T02:06:35;100261.63;;;21.26;84.60
22241;BME280;11289;52.524;13.694;2022-08-19T02:09:03;100260.00;;;21.28;86.88
22241;BME280;11289;52.524;13.694;2022-08-19T02:11:32;100255.56;;;21.27;87.89
22241;BME280;11289;52.524;13.694;2022-08-19T02:14:00;100259.97;;;21.35;85.96
22241;BME280;11289;52.524;13.694;2022-08-19T02:16:26;100248.34;;;21.22;85.83
22241;BME280;11289;52.524;13.694;2022-08-19T02:18:52;100252.38;;;21.21;84.92
22241;BME280;11289;52.524;13.694;2022-08-19T02:21:19;100261.63;;;21.26;86.94
22241;BME280;11289;52.524;13.694;2022-08-19T02:23:46;100255.16;;;21.29;86.14
22241;BME280;11289;52.524;13.694;2022-08-19T02:26:12;100244.31;;;21.24;86.40
22241;BME280;11289;52.524;13.694;2022-08-19T02:28:38;100251.97;;;21.27;85.92
22241;BME280;11289;52.524;13.694;2022-08-19T02:31:09;100254.38;;;21.28;86.16
22241;BME280;11289;52.524;13.694;2022-08-19T02:33:39;100258.84;;;21.18;85.05
22241;BME280;11289;52.524;13.694;2022-08-19T02:36:06;100254.50;;;21.10;86.40
22241;BME280;11289;52.524;13.694;2022-08-19T02:38:31;100247.22;;;21.05;85.99
22241;BME280;11289;52.524;13.694;2022-08-19T02:41:03;100252.84;;;21.13;86.56
22241;BME280;11289;52.524;13.694;2022-08-19T02:43:32;100243.94;;;21.14;86.24
22241;BME280;11289;52.524;13.694;2022-08-19T02:46:17;100244.44;;;21.02;85.97
22241;BME280;11289;52.524;13.694;2022-08-19T02:48:44;100237.19;;;21.04;86.39
22241;BME280;11289;52.524;13.694;2022-08-19T02:51:15;100250.09;;;21.02;85.96
22241;BME280;11289;52.524;13.694;2022-08-19T02:53:42;100257.34;;;20.99;86.71
22241;BME280;11289;52.524;13.694;2022-08-19T02:56:08;100263.44;;;20.94;86.29
22241;BME280;11289;52.524;13.694;2022-08-19T02:58:34;100266.22;;;21.01;86.52
22241;BME280;11289;52.524;13.694;2022-08-19T03:00:59;100250.94;;;20.88;85.51
22241;BME280;11289;52.524;13.694;2022-08-19T03:03:33;100254.22;;;20.83;85.91
22241;BME280;11289;52.524;13.694;2022-08-19T03:06:13;100255.44;;;20.75;86.09
22241;BME280;11289;52.524;13.694;2022-08-19T03:08:43;100265.88;;;20.85;86.52
22241;BME280;11289;52.524;13.694;2022-08-19T03:11:14;100238.97;;;20.69;86.84
22241;BME280;11289;52.524;13.694;2022-08-19T03:13:39;100255.44;;;20.75;86.01
22241;BME280;11289;52.524;13.694;2022-08-19T03:16:05;100247.03;;;20.71;87.72
22241;BME280;11289;52.524;13.694;2022-08-19T03:18:31;100269.13;;;20.87;88.00
22241;BME280;11289;52.524;13.694;2022-08-19T03:20:56;100236.16;;;20.69;86.41
22241;BME280;11289;52.524;13.694;2022-08-19T03:23:22;100232.88;;;20.75;85.38
22241;BME280;11289;52.524;13.694;2022-08-19T03:25:49;100218.00;;;20.63;87.06
22241;BME280;11289;52.524;13.694;2022-08-19T03:28:15;100226.50;;;20.67;86.31
22241;BME280;11289;52.524;13.694;2022-08-19T03:30:43;100232.91;;;20.71;86.42
22241;BME280;11289;52.524;13.694;2022-08-19T03:33:10;100233.31;;;20.73;86.89
22241;BME280;11289;52.524;13.694;2022-08-19T03:35:36;100205.53;;;20.57;86.49
22241;BME280;11289;52.524;13.694;2022-08-19T03:38:03;100241.38;;;20.71;87.12
22241;BME280;11289;52.524;13.694;2022-08-19T03:40:29;100249.00;;;20.70;86.76
22241;BME280;11289;52.524;13.694;2022-08-19T03:42:56;100246.19;;;20.70;86.98
22241;BME280;11289;52.524;13.694;2022-08-19T03:45:22;100259.88;;;20.76;87.44
22241;BME280;11289;52.524;13.694;2022-08-19T03:47:47;100258.72;;;20.62;86.20
22241;BME280;11289;52.524;13.694;2022-08-19T03:50:13;100267.16;;;20.69;86.88
22241;BME280;11289;52.524;13.694;2022-08-19T03:52:38;100264.31;;;20.66;87.09
22241;BME280;11289;52.524;13.694;2022-08-19T03:55:05;100272.41;;;20.71;87.23
22241;BME280;11289;52.524;13.694;2022-08-19T03:57:30;100245.41;;;20.66;87.85
22241;BME280;11289;52.524;13.694;2022-08-19T03:59:56;100262.72;;;20.76;87.46
22241;BME280;11289;52.524;13.694;2022-08-19T04:02:21;100243.34;;;20.78;87.07
22241;BME280;11289;52.524;13.694;2022-08-19T04:04:47;100249.00;;;20.81;86.34
22241;BME280;11289;52.524;13.694;2022-08-19T04:07:14;100253.81;;;20.81;86.38
22241;BME280;11289;52.524;13.694;2022-08-19T04:09:46;100264.31;;;20.77;86.56
22241;BME280;11289;52.524;13.694;2022-08-19T04:12:12;100271.97;;;20.80;86.94
22241;BME280;11289;52.524;13.694;2022-08-19T04:14:37;100253.84;;;20.74;86.23
22241;BME280;11289;52.524;13.694;2022-08-19T04:17:03;100257.44;;;20.78;86.75
22241;BME280;11289;52.524;13.694;2022-08-19T04:19:33;100266.72;;;20.78;86.45
22241;BME280;11289;52.524;13.694;2022-08-19T04:21:59;100266.72;;;20.75;85.84
22241;BME280;11289;52.524;13.694;2022-08-19T04:24:25;100266.34;;;20.73;86.41
22241;BME280;11289;52.524;13.694;2022-08-19T04:26:50;100258.69;;;20.77;86.57
22241;BME280;11289;52.524;13.694;2022-08-19T04:29:19;100267.53;;;20.79;85.68
22241;BME280;11289;52.524;13.694;2022-08-19T04:31:48;100263.88;;;20.82;86.60
22241;BME280;11289;52.524;13.694;2022-08-19T04:34:16;100277.97;;;20.85;86.44
22241;BME280;11289;52.524;13.694;2022-08-19T04:36:44;100270.72;;;20.81;85.58
22241;BME280;11289;52.524;13.694;2022-08-19T04:39:15;100274.38;;;20.78;86.67
22241;BME280;11289;52.524;13.694;2022-08-19T04:41:41;100267.09;;;20.84;86.52
22241;BME280;11289;52.524;13.694;2022-08-19T04:44:25;100256.63;;;20.81;86.40
22241;BME280;11289;52.524;13.694;2022-08-19T04:46:51;100247.38;;;20.80;86.13
22241;BME280;11289;52.524;13.694;2022-08-19T04:49:22;100261.06;;;20.85;85.99
22241;BME280;11289;52.524;13.694;2022-08-19T04:51:48;100264.69;;;20.86;86.37
22241;BME280;11289;52.524;13.694;2022-08-19T04:54:16;100272.31;;;20.89;86.19
22241;BME280;11289;52.524;13.694;2022-08-19T04:56:42;100265.84;;;20.92;86.30
22241;BME280;11289;52.524;13.694;2022-08-19T04:59:09;100255.31;;;21.00;86.10
22241;BME280;11289;52.524;13.694;2022-08-19T05:01:35;100240.03;;;20.97;85.65
22241;BME280;11289;52.524;13.694;2022-08-19T05:04:04;100245.69;;;20.94;85.38
22241;BME280;11289;52.524;13.694;2022-08-19T05:06:30;100246.94;;;20.93;85.25
22241;BME280;11289;52.524;13.694;2022-08-19T05:09:00;100241.69;;;20.87;85.37
22241;BME280;11289;52.524;13.694;2022-08-19T05:11:28;100249.34;;;20.91;84.56
22241;BME280;11289;52.524;13.694;2022-08-19T05:13:55;100237.66;;;20.85;85.02
22241;BME280;11289;52.524;13.694;2022-08-19T05:16:21;100245.31;;;20.88;85.12
22241;BME280;11289;52.524;13.694;2022-08-19T05:18:48;100242.53;;;20.84;85.32
22241;BME280;11289;52.524;13.694;2022-08-19T05:21:32;100239.69;;;20.84;85.38
22241;BME280;11289;52.524;13.694;2022-08-19T05:24:17;100233.66;;;20.86;85.45
22241;BME280;11289;52.524;13.694;2022-08-19T05:26:45;100233.25;;;20.84;85.59
22241;BME280;11289;52.524;13.694;2022-08-19T05:29:12;100226.38;;;20.85;85.54
22241;BME280;11289;52.524;13.694;2022-08-19T05:31:39;100232.81;;;20.93;86.28
22241;BME280;11289;52.524;13.694;2022-08-19T05:34:05;100227.97;;;20.93;86.50
22241;BME280;11289;52.524;13.694;2022-08-19T05:36:44;100230.38;;;20.91;85.80
22241;BME280;11289;52.524;13.694;2022-08-19T05:39:13;100227.97;;;20.90;86.44
22241;BME280;11289;52.524;13.694;2022-08-19T05:41:44;100233.59;;;20.93;86.64
22241;BME280;11289;52.524;13.694;2022-08-19T05:44:10;100238.47;;;20.93;85.90
22241;BME280;11289;52.524;13.694;2022-08-19T05:46:37;100240.88;;;20.94;86.31
22241;BME280;11289;52.524;13.694;2022-08-19T05:49:04;100244.84;;;21.00;86.22
22241;BME280;11289;52.524;13.694;2022-08-19T05:51:31;100238.41;;;21.00;85.89
22241;BME280;11289;52.524;13.694;2022-08-19T05:53:57;100243.19;;;21.10;86.62
22241;BME280;11289;52.524;13.694;2022-08-19T05:56:23;100237.09;;;21.15;86.71
22241;BME280;11289;52.524;13.694;2022-08-19T05:58:49;100245.56;;;21.15;86.35
22241;BME280;11289;52.524;13.694;2022-08-19T06:01:16;100245.56;;;21.19;86.69
22241;BME280;11289;52.524;13.694;2022-08-19T06:03:43;100253.19;;;21.18;86.15
22241;BME280;11289;52.524;13.694;2022-08-19T06:06:14;100250.38;;;21.22;87.06
22241;BME280;11289;52.524;13.694;2022-08-19T06:08:40;100268.44;;;21.32;86.70
22241;BME280;11289;52.524;13.694;2022-08-19T06:11:24;100261.16;;;21.34;86.85
22241;BME280;11289;52.524;13.694;2022-08-19T06:13:52;100272.00;;;21.43;87.07
22241;BME280;11289;52.524;13.694;2022-08-19T06:16:19;100272.38;;;21.49;86.20
22241;BME280;11289;52.524;13.694;2022-08-19T06:18:46;100280.84;;;21.49;86.50
22241;BME280;11289;52.524;13.694;2022-08-19T06:21:11;100272.00;;;21.47;85.80
22241;BME280;11289;52.524;13.694;2022-08-19T06:23:37;100276.41;;;21.48;85.13
22241;BME280;11289;52.524;13.694;2022-08-19T06:26:04;100266.72;;;21.49;85.75
22241;BME280;11289;52.524;13.694;2022-08-19T06:28:29;100263.88;;;21.60;86.63
22241;BME280;11289;52.524;13.694;2022-08-19T06:30:54;100257.34;;;21.66;86.46
22241;BME280;11289;52.524;13.694;2022-08-19T06:33:20;100253.25;;;21.74;85.52
22241;BME280;11289;52.524;13.694;2022-08-19T06:35:45;100252.78;;;21.80;86.13
22241;BME280;11289;52.524;13.694;2022-08-19T06:38:11;100254.78;;;21.83;84.77
22241;BME280;11289;52.524;13.694;2022-08-19T06:40:36;100258.00;;;21.85;85.29
22241;BME280;11289;52.524;13.694;2022-08-19T06:43:03;100265.56;;;21.95;84.84
22241;BME280;11289;52.524;13.694;2022-08-19T06:45:28;100259.91;;;21.99;84.99
22241;BME280;11289;52.524;13.694;2022-08-19T06:47:55;100259.16;;;21.91;82.45
22241;BME280;11289;52.524;13.694;2022-08-19T06:50:22;100254.81;;;21.79;83.88
22241;BME280;11289;52.524;13.694;2022-08-19T06:52:47;100269.59;;;21.94;84.33
22241;BME280;11289;52.524;13.694;2022-08-19T06:55:14;100272.41;;;21.98;83.87
22241;BME280;11289;52.524;13.694;2022-08-19T07:00:08;100290.09;;;22.05;83.52
22241;BME280;11289;52.524;13.694;2022-08-19T07:02:40;100287.69;;;22.04;83.26
22241;BME280;11289;52.524;13.694;2022-08-19T07:05:06;100288.13;;;22.02;83.00
22241;BME280;11289;52.524;13.694;2022-08-19T07:07:32;100301.81;;;22.07;83.36
22241;BME280;11289;52.524;13.694;2022-08-19T07:10:00;100309.44;;;22.11;83.46
22241;BME280;11289;52.524;13.694;2022-08-19T07:12:31;100311.84;;;22.12;83.30
22241;BME280;11289;52.524;13.694;2022-08-19T07:14:59;100314.28;;;22.10;83.43
22241;BME280;11289;52.524;13.694;2022-08-19T07:17:25;100320.34;;;22.08;82.94
22241;BME280;11289;52.524;13.694;2022-08-19T07:19:51;100314.75;;;22.05;83.17
22241;BME280;11289;52.524;13.694;2022-08-19T07:22:17;100297.38;;;22.03;83.52
22241;BME280;11289;52.524;13.694;2022-08-19T07:24:43;100296.53;;;22.09;83.44
22241;BME280;11289;52.524;13.694;2022-08-19T07:27:08;100292.91;;;22.09;83.37
22241;BME280;11289;52.524;13.694;2022-08-19T07:29:36;100295.69;;;22.13;83.41
22241;BME280;11289;52.524;13.694;2022-08-19T07:32:03;100303.31;;;22.16;83.19
22241;BME280;11289;52.524;13.694;2022-08-19T07:34:30;100296.47;;;22.17;82.88
22241;BME280;11289;52.524;13.694;2022-08-19T07:36:58;100298.06;;;22.18;83.24
22241;BME280;11289;52.524;13.694;2022-08-19T07:39:27;100307.78;;;22.17;83.24
22241;BME280;11289;52.524;13.694;2022-08-19T07:41:53;100299.28;;;22.17;83.09
22241;BME280;11289;52.524;13.694;2022-08-19T07:44:20;100310.06;;;22.29;83.33
22241;BME280;11289;52.524;13.694;2022-08-19T07:46:50;100310.88;;;22.33;83.25
22241;BME280;11289;52.524;13.694;2022-08-19T07:49:18;100310.38;;;22.42;83.17
22241;BME280;11289;52.524;13.694;2022-08-19T07:51:56;100317.63;;;22.47;82.31
22241;BME280;11289;52.524;13.694;2022-08-19T07:54:24;100317.56;;;22.50;82.00
22241;BME280;11289;52.524;13.694;2022-08-19T07:56:50;100292.63;;;22.38;81.92
22241;BME280;11289;52.524;13.694;2022-08-19T07:59:16;100319.94;;;22.55;82.28
22241;BME280;11289;52.524;13.694;2022-08-19T08:01:43;100338.91;;;22.55;81.09
22241;BME280;11289;52.524;13.694;2022-08-19T08:04:10;100339.69;;;22.59;81.57
22241;BME280;11289;52.524;13.694;2022-08-19T08:06:54;100338.81;;;22.66;81.21
22241;BME280;11289;52.524;13.694;2022-08-19T08:09:41;100329.50;;;22.69;81.31
22241;BME280;11289;52.524;13.694;2022-08-19T08:12:14;100323.34;;;22.74;81.12
22241;BME280;11289;52.524;13.694;2022-08-19T08:14:49;100324.09;;;22.82;81.50
22241;BME280;11289;52.524;13.694;2022-08-19T08:17:17;100321.59;;;22.87;81.30
22241;BME280;11289;52.524;13.694;2022-08-19T08:19:44;100333.28;;;22.89;81.36
22241;BME280;11289;52.524;13.694;2022-08-19T08:22:13;100349.75;;;22.98;80.79
22241;BME280;11289;52.524;13.694;2022-08-19T08:27:36;100350.47;;;23.06;80.11
22241;BME280;11289;52.524;13.694;2022-08-19T08:30:03;100336.72;;;23.08;80.08
22241;BME280;11289;52.524;13.694;2022-08-19T08:32:29;100333.81;;;23.15;79.98
22241;BME280;11289;52.524;13.694;2022-08-19T08:34:55;100335.38;;;23.20;78.49
22241;BME280;11289;52.524;13.694;2022-08-19T08:37:21;100334.97;;;23.18;78.91
22241;BME280;11289;52.524;13.694;2022-08-19T08:39:47;100335.22;;;23.30;78.92
22241;BME280;11289;52.524;13.694;2022-08-19T08:42:22;100334.69;;;23.39;78.85
22241;BME280;11289;52.524;13.694;2022-08-19T08:45:06;100334.56;;;23.50;77.92
22241;BME280;11289;52.524;13.694;2022-08-19T08:47:40;100342.44;;;23.62;78.51
22241;BME280;11289;52.524;13.694;2022-08-19T08:50:18;100339.03;;;23.75;78.16
22241;BME280;11289;52.524;13.694;2022-08-19T08:52:47;100341.00;;;23.78;77.86
22241;BME280;11289;52.524;13.694;2022-08-19T08:55:16;100344.59;;;23.82;76.71
22241;BME280;11289;52.524;13.694;2022-08-19T09:00:40;100352.66;;;23.84;74.64
22241;BME280;11289;52.524;13.694;2022-08-19T09:03:21;100356.72;;;23.82;76.34
22241;BME280;11289;52.524;13.694;2022-08-19T09:06:01;100361.09;;;23.91;76.31
22241;BME280;11289;52.524;13.694;2022-08-19T09:10:54;100367.88;;;23.97;75.75
22241;BME280;11289;52.524;13.694;2022-08-19T09:16:14;100362.00;;;24.08;75.08
22241;BME280;11289;52.524;13.694;2022-08-19T09:18:47;100367.56;;;24.15;75.01
22241;BME280;11289;52.524;13.694;2022-08-19T09:21:15;100364.91;;;24.28;75.05
22241;BME280;11289;52.524;13.694;2022-08-19T09:23:41;100369.38;;;24.29;74.81
22241;BME280;11289;52.524;13.694;2022-08-19T09:26:13;100360.00;;;24.32;73.83
22241;BME280;11289;52.524;13.694;2022-08-19T09:28:40;100359.50;;;24.37;73.67
22241;BME280;11289;52.524;13.694;2022-08-19T09:31:14;100357.91;;;24.60;74.34
22241;BME280;11289;52.524;13.694;2022-08-19T09:33:40;100351.22;;;24.70;71.84
22241;BME280;11289;52.524;13.694;2022-08-19T09:36:11;100353.34;;;24.86;72.30
22241;BME280;11289;52.524;13.694;2022-08-19T09:38:37;100359.91;;;25.03;71.85
22241;BME280;11289;52.524;13.694;2022-08-19T09:41:07;100365.00;;;25.12;70.27
22241;BME280;11289;52.524;13.694;2022-08-19T09:43:33;100369.94;;;25.08;69.74
22241;BME280;11289;52.524;13.694;2022-08-19T09:46:03;100362.44;;;24.97;69.36
22241;BME280;11289;52.524;13.694;2022-08-19T09:48:32;100364.19;;;24.91;68.72
22241;BME280;11289;52.524;13.694;2022-08-19T09:51:09;100372.13;;;24.80;70.00
22241;BME280;11289;52.524;13.694;2022-08-19T09:53:35;100367.75;;;24.75;70.47
22241;BME280;11289;52.524;13.694;2022-08-19T09:56:01;100355.97;;;24.77;71.43
22241;BME280;11289;52.524;13.694;2022-08-19T09:58:27;100349.41;;;24.80;71.41
22241;BME280;11289;52.524;13.694;2022-08-19T10:00:55;100350.63;;;24.79;71.29
22241;BME280;11289;52.524;13.694;2022-08-19T10:03:20;100359.22;;;24.75;71.48
22241;BME280;11289;52.524;13.694;2022-08-19T10:05:46;100359.38;;;24.68;71.75
22241;BME280;11289;52.524;13.694;2022-08-19T10:08:24;100346.41;;;24.67;71.63
22241;BME280;11289;52.524;13.694;2022-08-19T10:10:51;100352.69;;;24.55;71.62
22241;BME280;11289;52.524;13.694;2022-08-19T10:13:22;100354.38;;;24.52;71.45
22241;BME280;11289;52.524;13.694;2022-08-19T10:15:51;100353.63;;;24.48;71.68
22241;BME280;11289;52.524;13.694;2022-08-19T10:18:19;100345.91;;;24.48;72.10
22241;BME280;11289;52.524;13.694;2022-08-19T10:20:46;100344.56;;;24.57;72.98
22241;BME280;11289;52.524;13.694;2022-08-19T10:23:12;100332.34;;;24.60;72.25
22241;BME280;11289;52.524;13.694;2022-08-19T10:25:38;100326.50;;;24.71;71.50
22241;BME280;11289;52.524;13.694;2022-08-19T10:28:04;100324.66;;;24.80;70.60
22241;BME280;11289;52.524;13.694;2022-08-19T10:30:31;100320.81;;;24.91;71.31
22241;BME280;11289;52.524;13.694;2022-08-19T10:32:56;100323.13;;;24.96;70.28
22241;BME280;11289;52.524;13.694;2022-08-19T10:35:22;100313.38;;;24.97;71.18
22241;BME280;11289;52.524;13.694;2022-08-19T10:37:48;100316.88;;;25.05;70.56
22241;BME280;11289;52.524;13.694;2022-08-19T10:40:13;100331.84;;;25.05;69.58
22241;BME280;11289;52.524;13.694;2022-08-19T10:42:39;100321.53;;;24.95;68.82
22241;BME280;11289;52.524;13.694;2022-08-19T10:45:05;100303.59;;;24.98;71.29
22241;BME280;11289;52.524;13.694;2022-08-19T10:47:32;100326.69;;;25.20;69.72
22241;BME280;11289;52.524;13.694;2022-08-19T10:49:57;100317.50;;;25.32;68.43
22241;BME280;11289;52.524;13.694;2022-08-19T10:52:48;100328.72;;;25.40;68.35
22241;BME280;11289;52.524;13.694;2022-08-19T10:55:14;100322.41;;;25.48;68.36
22241;BME280;11289;52.524;13.694;2022-08-19T10:57:57;100324.81;;;25.50;68.37
22241;BME280;11289;52.524;13.694;2022-08-19T11:00:23;100331.06;;;25.61;68.23
22241;BME280;11289;52.524;13.694;2022-08-19T11:02:50;100330.16;;;25.64;68.05
22241;BME280;11289;52.524;13.694;2022-08-19T11:05:16;100326.72;;;25.57;67.17
22241;BME280;11289;52.524;13.694;2022-08-19T11:07:42;100321.53;;;25.51;67.98
22241;BME280;11289;52.524;13.694;2022-08-19T11:10:10;100333.72;;;25.52;67.90
22241;BME280;11289;52.524;13.694;2022-08-19T11:12:39;100341.59;;;25.44;67.65
22241;BME280;11289;52.524;13.694;2022-08-19T11:15:06;100337.50;;;25.45;68.01
22241;BME280;11289;52.524;13.694;2022-08-19T11:17:34;100335.41;;;25.49;67.80
22241;BME280;11289;52.524;13.694;2022-08-19T11:20:01;100338.22;;;25.49;67.84
22241;BME280;11289;52.524;13.694;2022-08-19T11:22:29;100328.47;;;25.50;68.64
22241;BME280;11289;52.524;13.694;2022-08-19T11:24:54;100354.53;;;25.82;67.84
22241;BME280;11289;52.524;13.694;2022-08-19T11:27:20;100340.31;;;25.82;67.00
22241;BME280;11289;52.524;13.694;2022-08-19T11:29:46;100350.09;;;25.97;66.30
22241;BME280;11289;52.524;13.694;2022-08-19T11:32:11;100346.03;;;25.98;65.30
22241;BME280;11289;52.524;13.694;2022-08-19T11:34:39;100343.53;;;26.17;65.73
22241;BME280;11289;52.524;13.694;2022-08-19T11:37:05;100333.78;;;26.18;63.07
22241;BME280;11289;52.524;13.694;2022-08-19T11:39:32;100336.59;;;26.34;65.23
22241;BME280;11289;52.524;13.694;2022-08-19T11:41:59;100334.16;;;26.49;64.07
22241;BME280;11289;52.524;13.694;2022-08-19T11:44:27;100336.25;;;26.62;64.44
22241;BME280;11289;52.524;13.694;2022-08-19T11:46:55;100346.03;;;26.77;64.50
22241;BME280;11289;52.524;13.694;2022-08-19T11:49:21;100359.22;;;26.71;63.65
22241;BME280;11289;52.524;13.694;2022-08-19T11:51:47;100359.84;;;26.62;64.70
22241;BME280;11289;52.524;13.694;2022-08-19T11:54:15;100364.13;;;26.54;65.06
22241;BME280;11289;52.524;13.694;2022-08-19T11:56:42;100358.28;;;26.45;65.24
22241;BME280;11289;52.524;13.694;2022-08-19T11:59:08;100365.84;;;26.35;65.25
22241;BME280;11289;52.524;13.694;2022-08-19T12:01:33;100360.78;;;26.26;65.51
22241;BME280;11289;52.524;13.694;2022-08-19T12:03:59;100375.63;;;26.34;66.34
22241;BME280;11289;52.524;13.694;2022-08-19T12:06:27;100362.38;;;26.27;65.84
22241;BME280;11289;52.524;13.694;2022-08-19T12:08:59;100378.56;;;26.30;65.53
22241;BME280;11289;52.524;13.694;2022-08-19T12:11:25;100366.03;;;26.28;65.83
22241;BME280;11289;52.524;13.694;2022-08-19T12:13:51;100386.97;;;26.50;65.76
22241;BME280;11289;52.524;13.694;2022-08-19T12:16:23;100385.66;;;26.55;65.55
22241;BME280;11289;52.524;13.694;2022-08-19T12:18:49;100389.47;;;26.48;65.22
22241;BME280;11289;52.524;13.694;2022-08-19T12:21:19;100392.78;;;26.47;65.92
22241;BME280;11289;52.524;13.694;2022-08-19T12:23:47;100393.75;;;26.56;65.51
22241;BME280;11289;52.524;13.694;2022-08-19T12:26:13;100397.31;;;26.61;64.50
22241;BME280;11289;52.524;13.694;2022-08-19T12:28:40;100391.09;;;26.49;64.40
22241;BME280;11289;52.524;13.694;2022-08-19T12:31:06;100383.06;;;26.61;65.44
22241;BME280;11289;52.524;13.694;2022-08-19T12:33:32;100384.56;;;26.82;66.02
22241;BME280;11289;52.524;13.694;2022-08-19T12:36:03;100383.09;;;26.90;63.46
22241;BME280;11289;52.524;13.694;2022-08-19T12:38:29;100377.53;;;26.99;63.76
22241;BME280;11289;52.524;13.694;2022-08-19T12:40:55;100386.38;;;27.18;63.63
22241;BME280;11289;52.524;13.694;2022-08-19T12:43:21;100370.41;;;27.50;62.14
22241;BME280;11289;52.524;13.694;2022-08-19T12:45:47;100372.69;;;27.93;62.77
22241;BME280;11289;52.524;13.694;2022-08-19T12:48:12;100383.31;;;28.54;61.15
22241;BME280;11289;52.524;13.694;2022-08-19T12:50:43;100383.81;;;29.09;57.47
22241;BME280;11289;52.524;13.694;2022-08-19T12:53:10;100386.50;;;29.26;56.45
22241;BME280;11289;52.524;13.694;2022-08-19T12:55:36;100385.47;;;29.42;55.88
22241;BME280;11289;52.524;13.694;2022-08-19T12:58:01;100383.22;;;29.68;56.57
22241;BME280;11289;52.524;13.694;2022-08-19T13:00:28;100382.09;;;29.97;54.42